Terminal Aerodrome Forecast
Issued by NWS Paducah, KY

Home | Current Version | Previous Version | Text Only | Print | Product List | Glossary On
Versions: 1 2 3 4 5 6 7 8 9 10 11 12 13 14 15 16 17 18 19 20 21 22 23 24 25
000
FTUS43 KPAH 270206 AAB
TAFPAH
TAF AMD
KPAH 270206Z 2702/2724 16008KT P6SM -SHRA SCT060 BKN110
      TEMPO 2702/2705 6SM SHRA BKN060
     FM270500 17006KT P6SM SCT100 BKN250
     FM271400 18008KT P6SM SCT050 BKN200=

USA.gov is the U.S. government's official web portal to all federal, state and local government web resources and services.